Decoded Metar for KEMV (EMPORIA in VA, USA) (IATA:EMV) | Meteo·Mobile Aviation Weather
aviador You're here:

KEMV Decoded Metar

EMPORIA in VA, USA
Report Time2019-02-16 07:26:00
UTC Time2019-02-16 07:56:34
Flight Rules vfr VFR
WindCalm
Visibility9999 m
Phenomena:N/A
Clouds:Broken 065 Hf
Overcast 085 Hf
Ceiling6,500 ft
Temp11°C (ISA -4)
Dew Point11°C (100% RH)
QNH1009 hPa
Density Alt-7 ft
Elevation128 ft
Report Wrong Elevation
Raw Report
KEMV 160726Z AUTO 00000KT 10SM BKN065 OVC085 11/11 A2979 RMK
AO2=

Extra information for KEMV:More info

Metar Taf Metar & Taf Last 4 Metars F.Rules Stats Wind Profile Meteogram Temp Stats Airport Information Weather charts Add Link Nearby VenuesMetar ALERT Operation Metar Decoded Social comments

AIRNAV info for KEMV